Terminal Aerodrome Forecast
Issued by NWS

Home | Current Version | Previous Version | Text Only | Print | Product List | Glossary On
Versions: 1 2 3 4 5 6 7 8 9 10 11 12 13 14
000
FTUS43 KGRB 032336
TAFMTW
TAF
KMTW 032336Z 0400/0424 VRB03KT P6SM OVC025
     FM040200 VRB03KT P6SM BKN035 OVC080
     FM041400 18006KT P6SM OVC020 PROB30 0415/0416 4SM -SN OVC012
     FM041600 17007KT 2SM -SN OVC012
     FM041800 17007KT 1 1/2SM -SN OVC008
      TEMPO 0420/0424 3/4SM -SN OVC004=

USA.gov is the U.S. government's official web portal to all federal, state and local government web resources and services.